Mount Vernon, WA

4:01 AM PDT on September 15, 2014 (GMT -0700)
Mariners Cove | Change Station
CLOSE
Current Station
Personal Weather Station
Location: Oak Harbor, WA
Elevation: 98 ft
Nearby Weather Stations

Elev 98 ft 48.29 °N, 122.52 °W | Updated 13 seconds ago

Clear
Clear
55.3 °F
Feels Like 55.3 °F
N
0.0
Wind Variable Wind from SE
Gusts 1.0 mph

Today
High -- | Low -- °F
--% Chance of Precip.
Yesterday
High -- | Low -- °F
Precip. -- in
6:46 AM 7:21 PM
Waning Gibbous, 56% visible
Pressure 29.89 in
Visibility 10.0 miles
Clouds Clear
Dew Point 50 °F
Humidity 81%
Rainfall 0.00 in
Snow Depth 0 in
UV 0 out of 12
Pollen 1.10 out of 12
PM2.5 Good
Flu Activity Not available.
METAR KBVS 151055Z AUTO 11003KT 10SM CLR 13/09 A2989 RMK A01 P000

More Conditions Fewer Conditions

Pressure 29.89 in
Visibility 10.0 miles
Clouds Clear
Dew Point 50 °F
Humidity 81%
Rainfall 0.00 in
Snow Depth 0 in
UV 0 out of 12
Pollen 1.10 out of 12
PM2.5 Good
Flu Activity Not available.
METAR KBVS 151055Z AUTO 11003KT 10SM CLR 13/09 A2989 RMK A01 P000

More Conditions Fewer Conditions

10-Day Weather Forecast

Almanac

Astronomy

Sep. 15, 2014 Rise Set
Actual Time 6:46 AM PDT 7:21 PM PDT
Civil Twilight 6:14 AM PDT 7:53 PM PDT
Nautical Twilight 5:37 AM PDT 8:30 PM PDT
Astronomical Twilight 4:58 AM PDT 9:09 PM PDT
Moon 11:41 PM PDT 2:19 PM PDT
Length of Visible Light 13h 38m
Length of Day
12h 35m
Tomorrow will be 3m 31s shorter.
Waning Gibbous, 56% of the Moon is Illuminated
Today
Waning Gibbous
Sep 15
Last Quarter
Sep 24
New
Oct 1
First Quarter
Oct 8
Full

Today's Extremes

State Highs State Lows

Community

WunderPhotos

Upload Photos

1,753,429 photos uploaded!

Nearby

Air Quality

  Air Quality AQ Index Pollutant
Yesterday Good
OZONE
Yesterday Good
PM2.5
Current Good
PM2.5
Monday Good
OZONE

Snow Depth

Station Depth Elevation
Spencer Meadow 0 in 3400 ft
Pope Ridge 0 in 3540 ft
Wells Creek 0 in 4200 ft
Harts Pass 0 in 6500 ft
Olallie Meadows 0 in 3700 ft

Earthquake Activity

City Distance Mag. Time & Date
No recent earthquake activity has been reported nearby.
Minimum magnitude displayed is 2.5.

Coastal Water Temperatures

Place Temperature
Port Townsend, WA 52.0 °F
Friday Harbor, WA 53.1 °F
Port Angeles, WA 51.1 °F

Nearby Weather Stations